Time;durP1;ratioP1;P1;durP2;ratioP2;P2;SDS_P1;SDS_P2;PMS_P1;PMS_P2;Temp;Humidity;BMP_temperature;BMP_pressure;BME280_temperature;BME280_humidity;BME280_pressure;Samples;Min_cycle;Max_cycle;Signal;HPM_P1;HPM_P2
2021/09/06 00:01:03;;;;;;;7.32;5.25;;;;;;;12.69;100.00;95587.94;5012212;28;20035;-57
2021/09/06 00:03:28;;;;;;;7.60;5.75;;;;;;;12.69;100.00;95592.50;5012235;28;20018;-58
2021/09/06 00:05:53;;;;;;;7.25;4.75;;;;;;;12.67;100.00;95595.47;5011276;28;20159;-55
2021/09/06 00:08:22;;;;;;;6.40;4.93;;;;;;;12.59;100.00;95603.22;5012220;28;20064;-55
2021/09/06 00:11:00;;;;;;;7.68;5.32;;;;;;;12.53;100.00;95598.94;5034366;28;20133;-55
2021/09/06 00:13:28;;;;;;;6.85;5.20;;;;;;;12.46;100.00;95605.34;5051764;28;20040;-56
2021/09/06 00:15:54;;;;;;;7.03;5.28;;;;;;;12.40;100.00;95609.09;5051802;28;20161;-57
2021/09/06 00:18:19;;;;;;;8.40;5.68;;;;;;;12.39;100.00;95606.69;5044798;28;20030;-58
2021/09/06 00:20:56;;;;;;;7.13;5.05;;;;;;;12.37;100.00;95608.78;5043525;28;20033;-58
2021/09/06 00:23:22;;;;;;;6.43;4.68;;;;;;;12.35;100.00;95616.31;5050685;28;20100;-58
2021/09/06 00:25:48;;;;;;;8.93;5.32;;;;;;;12.32;100.00;95616.84;5024769;28;20113;-58
2021/09/06 00:28:13;;;;;;;7.70;4.90;;;;;;;12.27;100.00;95612.28;5050142;28;20653;-58
2021/09/06 00:30:41;;;;;;;8.68;5.15;;;;;;;12.22;100.00;95611.44;5050610;28;20048;-56
2021/09/06 00:33:07;;;;;;;6.43;5.30;;;;;;;12.12;100.00;95617.56;5033575;28;20028;-57
2021/09/06 00:35:39;;;;;;;7.22;4.47;;;;;;;12.10;100.00;95609.75;5051467;28;20025;-58
2021/09/06 00:38:05;;;;;;;5.83;4.60;;;;;;;12.02;100.00;95612.94;5051502;28;20032;-57
2021/09/06 00:40:30;;;;;;;6.18;4.85;;;;;;;11.97;100.00;95614.81;5051246;28;20033;-58
2021/09/06 00:42:56;;;;;;;6.40;4.97;;;;;;;11.92;100.00;95612.06;5036840;28;20032;-58
2021/09/06 00:45:22;;;;;;;6.40;5.13;;;;;;;11.84;100.00;95608.03;5054775;28;20502;-58
2021/09/06 00:47:50;;;;;;;6.95;5.15;;;;;;;11.79;100.00;95608.78;5037088;28;20029;-58
2021/09/06 00:50:18;;;;;;;6.03;4.75;;;;;;;11.77;100.00;95602.03;5054662;28;20540;-58
2021/09/06 00:52:45;;;;;;;6.45;5.05;;;;;;;11.74;100.00;95606.06;5054662;28;20391;-58
2021/09/06 00:55:13;;;;;;;7.63;5.30;;;;;;;11.71;100.00;95606.56;5054873;28;20159;-55
2021/09/06 00:57:42;;;;;;;7.90;5.43;;;;;;;11.67;100.00;95604.66;5054471;28;20568;-53
2021/09/06 01:00:12;;;;;;;8.18;5.53;;;;;;;11.64;100.00;95600.63;5054837;28;20508;-55
2021/09/06 01:02:40;;;;;;;9.75;5.50;;;;;;;11.63;100.00;95595.53;5054763;28;20017;-57
2021/09/06 01:05:07;;;;;;;8.82;5.85;;;;;;;11.60;100.00;95599.50;5036752;28;20440;-52
2021/09/06 01:07:41;;;;;;;10.60;6.07;;;;;;;11.61;100.00;95595.75;5054408;28;20510;-58
2021/09/06 01:10:10;;;;;;;7.03;5.35;;;;;;;11.57;100.00;95595.47;5027452;28;20061;-59
2021/09/06 01:12:39;;;;;;;8.85;6.07;;;;;;;11.49;100.00;95593.25;5015573;28;20026;-60
2021/09/06 01:15:06;;;;;;;6.30;5.70;;;;;;;11.47;100.00;95595.41;5014304;28;20033;-60
2021/09/06 01:17:32;;;;;;;9.38;5.78;;;;;;;11.46;100.00;95587.63;5015072;28;20026;-59
2021/09/06 01:19:57;;;;;;;9.65;6.63;;;;;;;11.42;100.00;95590.00;5002167;28;20028;-60
2021/09/06 01:22:26;;;;;;;7.55;5.53;;;;;;;11.37;100.00;95594.50;5015141;28;20048;-61
2021/09/06 01:24:54;;;;;;;7.43;5.90;;;;;;;11.33;100.00;95584.31;5015067;28;20112;-60
2021/09/06 01:27:19;;;;;;;11.00;5.82;;;;;;;11.37;100.00;95586.47;5007838;28;20428;-60
2021/09/06 01:29:51;;;;;;;7.68;5.38;;;;;;;11.32;100.00;95587.25;5013834;28;20041;-60
2021/09/06 01:32:16;;;;;;;7.90;5.35;;;;;;;11.26;100.00;95578.34;5014587;28;20032;-61
2021/09/06 01:34:45;;;;;;;9.05;5.13;;;;;;;11.20;100.00;95576.72;5015380;28;20030;-60
2021/09/06 01:37:10;;;;;;;7.15;5.43;;;;;;;11.19;100.00;95575.09;5014803;28;20092;-60
2021/09/06 01:39:36;;;;;;;7.82;5.40;;;;;;;11.24;100.00;95572.44;5013115;28;20029;-60
2021/09/06 01:42:01;;;;;;;12.80;5.93;;;;;;;11.25;100.00;95565.19;5014469;28;20033;-60
2021/09/06 01:44:33;;;;;;;8.15;5.57;;;;;;;11.23;100.00;95549.38;5013053;28;20022;-60
2021/09/06 01:46:58;;;;;;;7.75;5.70;;;;;;;11.31;100.00;95553.47;5013960;28;20029;-60
2021/09/06 01:49:24;;;;;;;7.95;6.10;;;;;;;11.35;100.00;95546.50;5014134;28;20190;-60
2021/09/06 01:51:49;;;;;;;8.60;6.22;;;;;;;11.35;100.00;95540.34;5014003;28;20030;-60
2021/09/06 01:54:14;;;;;;;7.40;5.63;;;;;;;11.35;100.00;95533.09;5013166;28;20409;-60
2021/09/06 01:56:40;;;;;;;8.30;5.90;;;;;;;11.34;100.00;95539.53;5012844;28;20473;-60
2021/09/06 01:59:05;;;;;;;8.98;5.60;;;;;;;11.28;100.00;95533.31;5012977;28;20029;-60
2021/09/06 02:01:31;;;;;;;7.65;5.93;;;;;;;11.24;100.00;95531.41;5013702;28;20026;-60
2021/09/06 02:04:02;;;;;;;8.15;5.72;;;;;;;11.24;100.00;95534.09;5012597;28;20491;-59
2021/09/06 02:06:31;;;;;;;7.32;5.90;;;;;;;11.28;100.00;95527.94;5013597;28;20116;-59
2021/09/06 02:08:59;;;;;;;7.88;5.93;;;;;;;11.26;100.00;95529.28;5013762;28;20124;-58
2021/09/06 02:11:26;;;;;;;7.05;5.57;;;;;;;11.21;100.00;95537.28;5045780;28;20056;-60
2021/09/06 02:14:01;;;;;;;8.98;5.82;;;;;;;11.15;100.00;95532.94;5035344;28;20112;-60
2021/09/06 02:16:26;;;;;;;9.63;5.65;;;;;;;11.15;100.00;95533.75;5035542;28;20033;-62
2021/09/06 02:19:01;;;;;;;8.18;6.05;;;;;;;11.17;100.00;95528.13;5042146;28;20392;-63
2021/09/06 02:21:26;;;;;;;12.35;6.50;;;;;;;11.27;100.00;95531.69;5052188;28;20029;-63
2021/09/06 02:24:02;;;;;;;8.48;6.80;;;;;;;11.27;100.00;95518.28;5053171;28;20032;-63
2021/09/06 02:26:28;;;;;;;8.65;6.40;;;;;;;11.27;100.00;95520.97;5046891;28;20029;-63
2021/09/06 02:28:54;;;;;;;8.13;6.20;;;;;;;11.24;100.00;95513.44;5052859;28;20027;-60
2021/09/06 02:31:19;;;;;;;8.57;6.20;;;;;;;11.21;100.00;95513.16;5034957;28;20476;-60
2021/09/06 02:33:48;;;;;;;7.40;5.70;;;;;;;11.16;100.00;95515.78;5052672;28;20124;-60
2021/09/06 02:36:13;;;;;;;8.05;6.00;;;;;;;11.16;100.00;95515.78;5018541;28;20021;-60
2021/09/06 02:38:39;;;;;;;9.52;6.28;;;;;;;11.13;100.00;95519.81;5034791;28;20025;-60
2021/09/06 02:41:07;;;;;;;9.32;6.00;;;;;;;11.13;100.00;95514.44;5034798;28;20040;-60
2021/09/06 02:43:39;;;;;;;10.43;6.30;;;;;;;11.12;100.00;95506.66;5052700;28;20086;-60
2021/09/06 02:46:05;;;;;;;11.20;6.05;;;;;;;11.10;100.00;95511.47;5052669;28;20036;-60
2021/09/06 02:48:30;;;;;;;7.60;5.35;;;;;;;11.15;100.00;95508.81;5052757;28;20029;-60
2021/09/06 02:50:55;;;;;;;10.20;6.68;;;;;;;11.15;100.00;95511.50;5052565;28;20033;-60
2021/09/06 02:53:21;;;;;;;8.25;5.82;;;;;;;11.13;100.00;95513.63;5052392;28;20025;-60
2021/09/06 02:55:49;;;;;;;7.40;5.50;;;;;;;11.13;100.00;95514.44;5034666;28;20056;-61
2021/09/06 02:58:15;;;;;;;7.22;5.72;;;;;;;11.16;100.00;95507.75;5052425;28;20083;-61
2021/09/06 03:00:40;;;;;;;8.20;6.38;;;;;;;11.16;100.00;95508.56;5052310;28;20028;-61
2021/09/06 03:03:06;;;;;;;9.18;6.32;;;;;;;11.20;100.00;95509.69;5052365;28;20029;-60
2021/09/06 03:05:37;;;;;;;8.02;5.93;;;;;;;11.18;100.00;95506.44;5052350;28;20028;-61
2021/09/06 03:08:02;;;;;;;7.85;5.97;;;;;;;11.15;100.00;95506.13;5052323;28;20384;-60
2021/09/06 03:10:31;;;;;;;9.95;6.45;;;;;;;11.16;100.00;95497.03;5052001;28;20064;-61
2021/09/06 03:13:03;;;;;;;12.18;6.50;;;;;;;11.17;100.00;95502.13;5034404;28;20036;-60
2021/09/06 03:15:34;;;;;;;9.57;5.55;;;;;;;11.17;100.00;95490.59;5034365;28;20032;-61
2021/09/06 03:18:03;;;;;;;9.18;6.28;;;;;;;11.21;100.00;95489.03;5044601;28;20499;-60
2021/09/06 03:20:28;;;;;;;8.45;6.32;;;;;;;11.21;100.00;95481.00;5016262;28;20430;-61
2021/09/06 03:22:54;;;;;;;8.75;6.60;;;;;;;11.22;100.00;95486.09;5034067;28;20107;-60
2021/09/06 03:25:22;;;;;;;9.02;6.63;;;;;;;11.25;100.00;95482.06;5048954;28;20388;-60
2021/09/06 03:27:50;;;;;;;9.05;6.68;;;;;;;11.31;100.00;95486.41;5031817;28;20289;-61
2021/09/06 03:30:16;;;;;;;8.45;6.25;;;;;;;11.27;100.00;95478.06;5034315;28;20545;-60
2021/09/06 03:32:41;;;;;;;12.82;6.22;;;;;;;11.24;100.00;95481.28;5051957;28;20109;-60
2021/09/06 03:35:12;;;;;;;9.30;6.35;;;;;;;11.27;100.00;95471.88;5052066;28;20472;-60
2021/09/06 03:37:40;;;;;;;9.55;6.43;;;;;;;11.26;100.00;95478.31;5052015;28;20040;-59
2021/09/06 03:40:06;;;;;;;9.80;6.40;;;;;;;11.28;100.00;95477.00;5034030;28;20476;-60
2021/09/06 03:42:37;;;;;;;8.88;6.60;;;;;;;11.26;100.00;95476.44;5034201;28;20029;-61
2021/09/06 03:45:09;;;;;;;9.25;6.60;;;;;;;11.29;100.00;95477.81;5052039;28;20021;-60
2021/09/06 03:47:37;;;;;;;8.90;7.10;;;;;;;11.36;100.00;95481.06;5034301;28;20064;-61
2021/09/06 03:50:03;;;;;;;8.73;6.85;;;;;;;11.36;100.00;95478.38;5033932;28;20164;-60
2021/09/06 03:52:32;;;;;;;10.23;6.38;;;;;;;11.35;100.00;95486.69;5033937;28;20527;-60
2021/09/06 03:55:03;;;;;;;11.07;7.45;;;;;;;11.30;100.00;95485.59;5033830;28;20033;-60
2021/09/06 03:57:29;;;;;;;10.55;6.97;;;;;;;11.28;100.00;95490.41;5051916;28;20053;-61
2021/09/06 03:59:54;;;;;;;9.55;6.25;;;;;;;11.26;100.00;95484.50;5033800;28;20067;-61
2021/09/06 04:02:19;;;;;;;9.38;6.53;;;;;;;11.22;100.00;95496.81;5051640;28;20017;-60
2021/09/06 04:04:48;;;;;;;9.10;7.00;;;;;;;11.18;100.00;95490.38;5051765;28;20033;-60
2021/09/06 04:07:23;;;;;;;9.90;7.20;;;;;;;11.16;100.00;95491.66;5051811;28;20028;-60
2021/09/06 04:09:48;;;;;;;8.93;6.63;;;;;;;11.15;100.00;95498.91;5033603;28;20447;-61
2021/09/06 04:12:17;;;;;;;8.57;6.15;;;;;;;11.14;100.00;95499.16;5052320;28;20040;-61
2021/09/06 04:14:43;;;;;;;12.63;6.43;;;;;;;11.12;100.00;95499.44;5034483;28;20036;-60
2021/09/06 04:17:08;;;;;;;10.15;6.88;;;;;;;11.10;100.00;95509.59;5053989;28;20021;-61
2021/09/06 04:19:38;;;;;;;10.50;6.10;;;;;;;11.08;100.00;95510.94;5024114;28;20475;-60
2021/09/06 04:22:04;;;;;;;8.32;6.50;;;;;;;11.03;100.00;95517.84;5037622;28;20029;-61
2021/09/06 04:24:33;;;;;;;9.80;6.07;;;;;;;11.02;100.00;95516.25;5037408;28;20017;-61
2021/09/06 04:27:02;;;;;;;8.10;6.65;;;;;;;11.01;100.00;95508.47;5031640;28;20036;-60
2021/09/06 04:29:42;;;;;;;9.15;6.30;;;;;;;10.97;100.00;95518.91;5055182;28;20292;-60
2021/09/06 04:32:11;;;;;;;7.95;5.97;;;;;;;10.93;100.00;95525.00;5055028;28;20083;-58
2021/09/06 04:34:36;;;;;;;8.38;6.43;;;;;;;10.91;100.00;95525.25;5055206;28;20083;-60
2021/09/06 04:37:03;;;;;;;8.23;6.28;;;;;;;10.89;100.00;95523.91;5037255;28;20488;-59
2021/09/06 04:39:34;;;;;;;9.75;6.90;;;;;;;10.89;100.00;95526.59;5055068;28;20029;-60
2021/09/06 04:42:06;;;;;;;9.48;6.80;;;;;;;10.87;100.00;95529.53;5054516;28;20028;-61
2021/09/06 04:44:31;;;;;;;8.23;5.97;;;;;;;10.85;100.00;95526.28;5037200;28;20471;-60
2021/09/06 04:46:56;;;;;;;8.88;6.97;;;;;;;10.83;100.00;95532.97;5037185;28;20028;-60
2021/09/06 04:49:22;;;;;;;11.85;7.05;;;;;;;10.78;100.00;95546.31;5054871;28;20380;-61
2021/09/06 04:52:01;;;;;;;9.63;6.43;;;;;;;10.72;100.00;95543.59;5054778;28;20399;-61
2021/09/06 04:54:29;;;;;;;10.07;6.90;;;;;;;10.74;100.00;95538.81;5054788;28;20048;-61
2021/09/06 04:56:54;;;;;;;10.50;6.60;;;;;;;10.72;100.00;95540.91;5037065;28;20067;-60
2021/09/06 04:59:21;;;;;;;9.45;6.60;;;;;;;10.70;100.00;95537.69;5036791;28;20067;-60
2021/09/06 05:01:49;;;;;;;10.80;6.57;;;;;;;10.72;100.00;95540.09;5054595;28;20028;-61
2021/09/06 05:04:24;;;;;;;10.13;6.55;;;;;;;10.73;100.00;95537.16;5054678;28;20044;-60
2021/09/06 05:06:49;;;;;;;8.93;5.95;;;;;;;10.77;100.00;95542.03;5036576;28;20037;-60
2021/09/06 05:09:21;;;;;;;10.02;7.00;;;;;;;10.90;100.00;95542.41;5054441;28;20479;-60
2021/09/06 05:11:52;;;;;;;10.77;6.93;;;;;;;10.96;100.00;95535.22;5041544;28;20053;-60
2021/09/06 05:14:17;;;;;;;9.48;6.70;;;;;;;11.06;100.00;95535.28;5007651;28;20087;-60
2021/09/06 05:16:43;;;;;;;9.18;6.45;;;;;;;11.15;100.00;95533.75;5045316;28;20049;-60
2021/09/06 05:19:08;;;;;;;13.38;7.78;;;;;;;11.31;100.00;95530.13;5029034;28;20025;-60
2021/09/06 05:21:40;;;;;;;9.07;6.70;;;;;;;11.48;100.00;95524.59;5030822;28;20077;-60
2021/09/06 05:24:08;;;;;;;9.73;7.38;;;;;;;11.56;100.00;95532.16;5021871;28;20022;-60
2021/09/06 05:26:34;;;;;;;10.40;7.20;;;;;;;11.64;100.00;95525.50;5039542;28;20025;-61
2021/09/06 05:28:59;;;;;;;9.95;7.50;;;;;;;11.69;100.00;95528.19;5052822;28;20048;-61
2021/09/06 05:31:24;;;;;;;10.00;7.13;;;;;;;11.78;100.00;95531.19;5053304;28;20035;-61
2021/09/06 05:33:52;;;;;;;9.23;7.00;;;;;;;11.81;100.00;95531.50;5053904;28;20028;-59
2021/09/06 05:36:18;;;;;;;9.48;7.47;;;;;;;11.82;100.00;95538.47;5036088;28;20480;-60
2021/09/06 05:38:44;;;;;;;8.88;6.65;;;;;;;11.83;100.00;95536.59;5035966;28;20025;-61
2021/09/06 05:41:10;;;;;;;13.05;6.55;;;;;;;11.82;100.00;95540.34;5046491;28;20477;-60
2021/09/06 05:43:36;;;;;;;11.13;6.80;;;;;;;11.81;100.00;95546.78;5053952;28;20184;-60
2021/09/06 05:46:02;;;;;;;10.80;6.78;;;;;;;11.80;100.00;95542.50;5033176;28;20124;-57
2021/09/06 05:48:28;;;;;;;8.00;6.20;;;;;;;11.87;100.00;95556.50;5010922;28;20483;-60
2021/09/06 05:50:53;;;;;;;11.27;6.43;;;;;;;12.00;100.00;95561.38;5032270;28;20025;-60
2021/09/06 05:53:19;;;;;;;11.10;7.32;;;;;;;12.22;100.00;95553.16;5030797;28;20457;-60
2021/09/06 05:55:44;;;;;;;12.63;7.38;;;;;;;12.39;100.00;95559.13;5030719;28;20034;-61
2021/09/06 05:58:09;;;;;;;11.98;6.80;;;;;;;12.53;100.00;95558.63;5035043;28;20086;-60
2021/09/06 06:00:35;;;;;;;9.25;7.32;;;;;;;12.65;100.00;95567.25;5036772;28;20028;-60
2021/09/06 06:03:01;;;;;;;9.98;6.97;;;;;;;12.84;100.00;95567.56;4949809;28;20101;-60
2021/09/06 06:05:27;;;;;;;9.55;7.30;;;;;;;12.96;100.00;95563.53;5030105;28;20035;-61
2021/09/06 06:07:52;;;;;;;11.05;7.18;;;;;;;13.21;100.00;95564.63;5033075;28;20103;-60
2021/09/06 06:10:20;;;;;;;9.40;6.80;;;;;;;13.45;100.00;95564.88;5037247;28;20060;-61
2021/09/06 06:12:46;;;;;;;10.07;6.63;;;;;;;13.71;100.00;95558.41;4993362;28;20041;-61
2021/09/06 06:15:11;;;;;;;7.53;5.78;;;;;;;13.97;100.00;95561.81;5016845;28;20033;-61
2021/09/06 06:17:39;;;;;;;9.68;6.20;;;;;;;14.30;100.00;95564.94;5042180;28;20070;-60
2021/09/06 06:20:14;;;;;;;10.32;6.40;;;;;;;14.58;100.00;95564.28;5012905;28;20029;-61
2021/09/06 06:22:39;;;;;;;9.82;6.28;;;;;;;14.79;100.00;95555.00;5035042;28;20518;-61
2021/09/06 06:25:05;;;;;;;9.98;6.85;;;;;;;15.03;100.00;95538.13;5033975;28;20047;-61
2021/09/06 06:27:33;;;;;;;10.23;6.95;;;;;;;15.22;100.00;95535.53;5046679;28;20078;-61
2021/09/06 06:29:58;;;;;;;7.88;5.72;;;;;;;15.45;100.00;95521.28;5041607;28;20032;-60
2021/09/06 06:32:23;;;;;;;13.18;7.07;;;;;;;15.66;100.00;95516.53;5052831;28;20052;-60
2021/09/06 06:34:52;;;;;;;9.93;6.60;;;;;;;15.82;100.00;95490.16;5035439;28;20024;-61
2021/09/06 06:37:20;;;;;;;9.60;5.75;;;;;;;15.98;100.00;95467.28;5035194;28;20025;-61
2021/09/06 06:39:46;;;;;;;11.35;6.90;;;;;;;16.08;100.00;95434.72;5052504;28;20025;-61
2021/09/06 06:42:30;;;;;;;17.05;7.15;;;;;;;16.31;100.00;95399.81;5053035;28;20059;-61
2021/09/06 06:45:05;;;;;;;10.02;6.30;;;;;;;16.56;100.00;95366.97;5035061;28;20033;-61
2021/09/06 06:47:36;;;;;;;10.35;6.20;;;;;;;16.80;100.00;95337.09;5035061;28;20476;-61
2021/09/06 06:50:03;;;;;;;8.50;6.35;;;;;;;17.01;100.00;95288.84;5052791;28;20064;-61
2021/09/06 06:52:28;;;;;;;8.52;6.22;;;;;;;17.21;100.00;95245.13;5052985;28;20135;-61
2021/09/06 06:54:53;;;;;;;10.07;5.90;;;;;;;17.43;100.00;95201.06;5018854;28;20116;-61
2021/09/06 06:57:19;;;;;;;8.13;6.22;;;;;;;17.58;100.00;95181.78;5052619;28;20033;-60
2021/09/06 06:59:44;;;;;;;9.88;6.53;;;;;;;17.77;100.00;95167.28;5051896;28;20036;-61
2021/09/06 07:02:10;;;;;;;9.05;6.45;;;;;;;18.02;100.00;95163.13;5051598;28;20017;-61
2021/09/06 07:04:52;;;;;;;9.27;6.22;;;;;;;18.27;100.00;95167.91;5035183;28;20024;-61
2021/09/06 07:07:18;;;;;;;10.55;5.93;;;;;;;18.52;100.00;95175.34;5021244;28;20032;-61
2021/09/06 07:09:43;;;;;;;8.75;6.57;;;;;;;18.63;100.00;95186.75;5052845;28;20028;-60
2021/09/06 07:12:24;;;;;;;9.68;6.90;;;;;;;18.75;100.00;95202.44;5035634;28;20072;-56
2021/09/06 07:14:49;;;;;;;9.63;6.82;;;;;;;18.94;100.00;95213.06;5035963;28;20028;-61
2021/09/06 07:17:14;;;;;;;8.38;6.55;;;;;;;19.13;100.00;95242.69;5054697;28;20480;-61
2021/09/06 07:19:43;;;;;;;7.93;6.15;;;;;;;19.38;100.00;95261.75;5040729;28;20054;-61
2021/09/06 07:22:08;;;;;;;8.40;6.40;;;;;;;19.62;100.00;95283.06;5035480;28;20108;-61
2021/09/06 07:24:50;;;;;;;7.45;5.75;;;;;;;19.91;100.00;95314.31;5052761;28;20068;-61
2021/09/06 07:27:25;;;;;;;8.38;6.30;;;;;;;20.08;100.00;95363.28;5029373;28;20356;-61
2021/09/06 07:29:53;;;;;;;7.75;5.88;;;;;;;20.13;100.00;95414.78;5052157;28;20021;-61
2021/09/06 07:32:25;;;;;;;7.65;6.25;;;;;;;20.06;100.00;95430.75;5052391;28;20017;-60
2021/09/06 07:34:50;;;;;;;9.80;6.07;;;;;;;20.17;100.00;95437.50;5052499;28;20422;-61
2021/09/06 07:37:15;;;;;;;8.68;6.53;;;;;;;20.41;100.00;95482.53;5035023;28;20055;-60
2021/09/06 07:39:46;;;;;;;7.72;5.82;;;;;;;20.66;100.00;95516.38;5052853;28;20047;-61
2021/09/06 07:42:12;;;;;;;9.98;5.88;;;;;;;20.71;100.00;95538.78;5052676;28;20025;-61
2021/09/06 07:44:37;;;;;;;9.30;5.63;;;;;;;20.66;100.00;95546.31;5053170;28;20438;-61
2021/09/06 07:47:02;;;;;;;7.40;6.10;;;;;;;20.86;100.00;95583.81;5035031;28;20044;-61
2021/09/06 07:49:31;;;;;;;9.85;6.40;;;;;;;21.05;100.00;95610.75;5018478;28;20032;-61
2021/09/06 07:52:05;;;;;;;9.43;6.63;;;;;;;21.30;100.00;95636.47;5054692;28;20017;-61
2021/09/06 07:54:34;;;;;;;7.82;6.28;;;;;;;21.46;100.00;95650.41;5057338;28;20541;-61
2021/09/06 07:56:59;;;;;;;8.55;6.13;;;;;;;21.64;100.00;95676.56;5039427;28;20468;-61
2021/09/06 07:59:24;;;;;;;8.65;5.93;;;;;;;21.72;100.00;95726.78;5057463;28;20055;-61
2021/09/06 08:01:50;;;;;;;7.78;6.20;;;;;;;21.91;100.00;95749.06;5040179;28;20032;-61
2021/09/06 08:04:20;;;;;;;8.25;5.60;;;;;;;21.85;100.00;95734.00;5058585;28;20017;-61
2021/09/06 08:06:55;;;;;;;9.38;6.75;;;;;;;21.94;100.00;95734.78;5041206;28;20503;-61
2021/09/06 08:09:23;;;;;;;8.85;6.10;;;;;;;21.90;100.00;95759.16;5058161;28;20029;-61
2021/09/06 08:11:49;;;;;;;8.15;6.32;;;;;;;21.97;100.00;95770.41;5057656;28;20305;-61
2021/09/06 08:14:16;;;;;;;7.93;6.30;;;;;;;22.10;100.00;95770.59;5039349;28;20431;-61
2021/09/06 08:16:51;;;;;;;7.05;6.22;;;;;;;22.34;100.00;95772.81;5039087;28;20036;-61
2021/09/06 08:19:28;;;;;;;8.05;6.18;;;;;;;22.62;100.00;95795.13;5025624;28;20021;-62
2021/09/06 08:21:56;;;;;;;8.43;6.35;;;;;;;22.84;100.00;95809.38;5056633;28;20033;-61
2021/09/06 08:24:23;;;;;;;7.88;6.38;;;;;;;23.07;100.00;95840.03;5038902;28;20060;-61
2021/09/06 08:26:48;;;;;;;9.05;6.32;;;;;;;23.20;100.00;95851.88;5031932;28;20045;-61
2021/09/06 08:29:18;;;;;;;9.75;6.10;;;;;;;23.28;100.00;95852.97;5038733;28;20116;-61
2021/09/06 08:31:43;;;;;;;8.65;5.95;;;;;;;23.46;100.00;95860.00;5056456;28;20025;-61
2021/09/06 08:34:12;;;;;;;7.28;5.68;;;;;;;23.79;100.00;95871.13;5055219;28;20082;-61
2021/09/06 08:36:40;;;;;;;8.77;5.53;;;;;;;24.03;100.00;95900.59;5054636;28;20384;-61
2021/09/06 08:39:09;;;;;;;7.20;6.18;;;;;;;23.99;100.00;95921.56;5038171;28;20033;-61
2021/09/06 08:41:35;;;;;;;7.82;5.85;;;;;;;23.94;100.00;95938.16;5038488;28;20043;-61
2021/09/06 08:44:01;;;;;;;10.63;6.05;;;;;;;24.15;100.00;95932.75;5038402;28;20052;-61
2021/09/06 08:46:27;;;;;;;10.60;6.50;;;;;;;24.21;100.00;95967.00;5038836;28;20384;-61
2021/09/06 08:48:56;;;;;;;8.00;6.35;;;;;;;24.04;100.00;95961.63;5038230;28;20029;-61
2021/09/06 08:51:24;;;;;;;8.45;6.50;;;;;;;24.02;100.00;95936.53;5056521;28;20498;-61
2021/09/06 08:53:50;;;;;;;7.95;5.70;;;;;;;24.22;100.00;95949.47;5056286;28;20021;-61
2021/09/06 08:56:17;;;;;;;8.30;6.30;;;;;;;24.53;100.00;95980.06;5038315;28;20507;-61
2021/09/06 08:58:42;;;;;;;10.65;6.25;;;;;;;24.23;100.00;95992.91;5038870;28;20017;-61
2021/09/06 09:01:14;;;;;;;9.75;6.80;;;;;;;23.77;100.00;95976.53;5055949;28;20154;-61
2021/09/06 09:03:55;;;;;;;8.57;6.40;;;;;;;23.84;100.00;95972.16;5037809;28;20024;-61
2021/09/06 09:06:22;;;;;;;8.77;5.95;;;;;;;24.29;100.00;95949.72;5055998;28;20067;-61
2021/09/06 09:08:55;;;;;;;7.68;5.93;;;;;;;24.50;100.00;95988.13;5056497;28;20082;-61
2021/09/06 09:11:24;;;;;;;8.23;5.97;;;;;;;24.56;100.00;96000.50;5056362;28;20048;-61
2021/09/06 09:13:52;;;;;;;9.20;6.57;;;;;;;24.69;100.00;96021.34;5038166;28;20021;-61
2021/09/06 09:16:17;;;;;;;8.60;6.50;;;;;;;24.55;100.00;96037.25;5056008;28;20029;-61
2021/09/06 09:18:43;;;;;;;7.82;6.38;;;;;;;24.43;100.00;96012.50;5046001;28;20025;-61
2021/09/06 09:21:14;;;;;;;10.75;6.18;;;;;;;24.55;100.00;95982.47;5034256;28;20021;-61
2021/09/06 09:23:45;;;;;;;7.28;6.53;;;;;;;24.69;100.00;95990.41;5055954;28;20489;-61
2021/09/06 09:26:12;;;;;;;8.10;6.78;;;;;;;24.82;100.00;96016.75;5049971;28;20040;-61
2021/09/06 09:28:43;;;;;;;8.63;6.50;;;;;;;25.11;100.00;95994.00;5055941;28;20023;-61
2021/09/06 09:31:11;;;;;;;8.48;6.45;;;;;;;25.03;100.00;96025.03;5043226;28;20033;-61
2021/09/06 09:33:46;;;;;;;8.65;6.50;;;;;;;25.22;100.00;96030.84;5055944;28;20025;-60
2021/09/06 09:36:12;;;;;;;8.07;5.90;;;;;;;25.34;100.00;96019.13;5056669;28;20395;-61
2021/09/06 09:38:38;;;;;;;7.60;6.53;;;;;;;25.42;100.00;96026.47;5037867;28;20021;-60
2021/09/06 09:41:15;;;;;;;10.00;6.80;;;;;;;25.38;100.00;96028.25;5055072;28;20029;-62
2021/09/06 09:43:42;;;;;;;10.70;6.50;;;;;;;25.50;100.00;96020.09;5054865;28;20032;-62
2021/09/06 09:46:08;;;;;;;10.27;7.25;;;;;;;25.42;100.00;96034.69;5037388;28;20025;-61
2021/09/06 09:48:36;;;;;;;8.95;6.53;;;;;;;25.50;100.00;96042.03;5054488;28;20025;-61
2021/09/06 09:51:01;;;;;;;8.52;6.57;;;;;;;25.73;100.00;96028.78;5054160;28;20033;-61
2021/09/06 09:53:28;;;;;;;9.07;6.57;;;;;;;26.09;100.00;96035.47;5036172;28;20036;-61
2021/09/06 09:55:54;;;;;;;8.80;6.80;;;;;;;-144.43;100.00;64487.81;5054115;28;20028;-60
2021/09/06 09:58:19;;;;;;;16.88;8.30;;;;;;;-144.43;100.00;64487.81;5037564;28;20098;-61
2021/09/06 10:00:48;;;;;;;10.20;6.72;;;;;;;-144.43;100.00;64487.81;5054632;28;20479;-61
2021/09/06 10:03:16;;;;;;;24.38;15.77;;;;;;;-144.43;100.00;64487.81;5036632;28;20180;-61
2021/09/06 10:05:42;;;;;;;8.00;7.05;;;;;;;-144.43;100.00;64487.81;5036526;28;20029;-61
2021/09/06 10:08:12;;;;;;;18.63;13.32;;;;;;;-144.43;100.00;64487.81;5053992;28;20024;-61
2021/09/06 10:10:43;;;;;;;11.65;7.75;;;;;;;-144.43;100.00;64487.81;5053714;28;20053;-61
2021/09/06 10:13:13;;;;;;;10.00;8.60;;;;;;;-144.43;100.00;64487.81;5035765;28;20078;-61
2021/09/06 10:15:58;;;;;;;11.02;7.50;;;;;;;-144.43;100.00;64487.81;5053151;28;20427;-61
2021/09/06 10:18:23;;;;;;;7.97;6.72;;;;;;;-144.43;100.00;64487.81;5046249;28;20025;-61
2021/09/06 10:20:50;;;;;;;7.68;6.93;;;;;;;-144.43;100.00;64487.81;5029179;28;20031;-60
2021/09/06 10:23:19;;;;;;;10.73;7.85;;;;;;;-144.43;100.00;64487.81;5035316;28;20029;-61
2021/09/06 10:25:51;;;;;;;7.85;7.00;;;;;;;-144.43;100.00;64487.81;5029306;28;20025;-61
2021/09/06 10:28:30;;;;;;;11.50;7.45;;;;;;;-144.43;100.00;64487.81;5053372;28;20025;-60
2021/09/06 10:30:55;;;;;;;9.93;8.35;;;;;;;-144.43;100.00;64487.81;5053028;28;20025;-61
2021/09/06 10:33:28;;;;;;;8.27;6.88;;;;;;;-144.43;100.00;64487.81;5053035;28;20048;-62
2021/09/06 10:36:20;;;;;;;9.20;7.75;;;;;;;-144.43;100.00;64487.81;5052896;28;20017;-61
2021/09/06 10:39:01;;;;;;;8.90;7.20;;;;;;;-144.43;100.00;64487.81;5052861;28;20029;-61
2021/09/06 10:41:27;;;;;;;9.18;6.45;;;;;;;-144.43;100.00;64487.81;5052753;28;20025;-61
2021/09/06 10:43:59;;;;;;;8.00;7.05;;;;;;;-144.43;100.00;64487.81;5018382;28;20052;-62
2021/09/06 10:46:27;;;;;;;8.85;7.35;;;;;;;-144.43;100.00;64487.81;5034877;28;20027;-61
2021/09/06 10:48:54;;;;;;;8.20;6.78;;;;;;;-144.43;100.00;64487.81;5035406;28;20418;-62
2021/09/06 10:51:27;;;;;;;7.57;6.47;;;;;;;-144.43;100.00;64487.81;5052689;28;20061;-61
2021/09/06 10:53:57;;;;;;;9.30;6.80;;;;;;;-144.43;100.00;64487.81;5052485;28;20028;-61
2021/09/06 10:56:28;;;;;;;10.35;6.65;;;;;;;-144.43;100.00;64487.81;5034891;28;20075;-61
2021/09/06 10:58:54;;;;;;;7.57;6.78;;;;;;;-144.43;100.00;64487.81;5034672;28;20029;-61
2021/09/06 11:01:28;;;;;;;8.13;6.32;;;;;;;-144.43;100.00;64487.81;5034518;28;20389;-62
2021/09/06 11:03:56;;;;;;;7.30;6.47;;;;;;;-144.43;100.00;64487.81;5053830;28;20116;-62
2021/09/06 11:06:25;;;;;;;9.18;6.18;;;;;;;-144.43;100.00;64487.81;5053954;28;20028;-61
2021/09/06 11:08:52;;;;;;;8.05;6.40;;;;;;;-144.43;100.00;64487.81;5047862;28;20029;-61
2021/09/06 11:11:18;;;;;;;7.80;6.28;;;;;;;-144.43;100.00;64487.81;5047025;28;20492;-61
2021/09/06 11:13:46;;;;;;;7.72;6.60;;;;;;;-144.43;100.00;64487.81;5020625;28;20033;-61
2021/09/06 11:16:16;;;;;;;9.43;6.63;;;;;;;-144.43;100.00;64487.81;5040859;28;20107;-61
2021/09/06 11:19:09;;;;;;;8.68;6.70;;;;;;;-144.43;100.00;64487.81;5046008;28;20026;-61
2021/09/06 11:21:35;;;;;;;8.30;6.63;;;;;;;-144.43;100.00;64487.81;5034664;28;20435;-61
2021/09/06 11:24:00;;;;;;;7.85;7.05;;;;;;;-144.43;100.00;64487.81;5033170;28;20053;-62
2021/09/06 11:26:28;;;;;;;8.43;6.50;;;;;;;-144.43;100.00;64487.81;5017729;28;20057;-61